createdAt,value
2023-03-08T00:08:35.200Z,93.73
2023-03-08T00:18:08.334Z,94.87
2023-03-08T00:27:39.707Z,94.87
2023-03-08T00:37:13.898Z,94.76
2023-03-08T00:46:47.547Z,94.57
2023-03-08T00:56:20.862Z,94.96
2023-03-08T01:05:54.431Z,95.41
2023-03-08T01:15:29.549Z,95.56
2023-03-08T01:25:01.295Z,94.41
2023-03-08T01:34:36.813Z,94.64
2023-03-08T01:44:10.006Z,95.08
2023-03-08T01:53:43.546Z,94.42
2023-03-08T02:03:17.225Z,95.78
2023-03-08T02:12:49.234Z,94.91
2023-03-08T02:22:23.949Z,90.35
2023-03-08T02:31:57.267Z,87.82
2023-03-08T02:41:28.947Z,81.28
2023-03-08T02:51:02.650Z,77.42
2023-03-08T03:00:37.653Z,73.33
2023-03-08T03:10:10.076Z,72.60
2023-03-08T03:19:45.871Z,72.03
2023-03-08T03:29:16.793Z,70.34
2023-03-08T03:38:52.296Z,69.69
2023-03-08T03:48:26.063Z,70.14
2023-03-08T03:57:56.322Z,70.33
2023-03-08T04:07:31.409Z,70.94
2023-03-08T04:17:04.471Z,71.28
2023-03-08T04:26:36.412Z,72.02
2023-03-08T04:36:09.402Z,73.33
2023-03-08T04:45:44.684Z,74.87
2023-03-08T04:55:15.530Z,76.23
2023-03-08T05:04:48.793Z,76.92
2023-03-08T05:14:22.529Z,77.67
2023-03-08T05:23:55.269Z,77.75
2023-03-08T05:33:26.645Z,77.07
2023-03-08T05:43:01.514Z,77.79
2023-03-08T05:52:34.565Z,77.58
2023-03-08T06:02:06.315Z,77.40
2023-03-08T06:11:41.346Z,77.45
2023-03-08T06:21:14.775Z,76.27
2023-03-08T06:30:48.525Z,73.53
2023-03-08T06:40:21.855Z,73.06
2023-03-08T06:49:55.016Z,73.09
2023-03-08T06:59:26.362Z,73.86
2023-03-08T07:09:00.180Z,74.90
2023-03-08T07:18:33.499Z,81.44
2023-03-08T07:28:06.383Z,85.70
2023-03-08T07:37:39.857Z,89.78
2023-03-08T07:47:14.630Z,94.79
2023-03-08T07:56:47.127Z,97.88
2023-03-08T08:06:20.313Z,100.00
2023-03-08T08:15:51.342Z,100.00
2023-03-08T08:25:24.500Z,100.00
2023-03-08T08:35:00.182Z,100.00
2023-03-08T08:44:31.303Z,100.00
2023-03-08T08:54:05.539Z,100.00
2023-03-08T09:03:40.340Z,100.00
2023-03-08T09:13:12.184Z,100.00
2023-03-08T09:14:16.022Z,100.00
2023-03-08T09:15:19.904Z,100.00
2023-03-08T09:16:23.814Z,100.00
2023-03-08T09:25:55.556Z,100.00
2023-03-08T09:26:58.135Z,100.00
2023-03-08T09:28:02.181Z,100.00
2023-03-08T09:29:04.303Z,100.00
2023-03-08T09:30:06.702Z,100.00
2023-03-08T09:31:10.730Z,100.00
2023-03-08T09:40:42.539Z,100.00
2023-03-08T09:41:46.421Z,100.00
2023-03-08T09:42:48.697Z,100.00
2023-03-08T09:43:52.638Z,100.00
2023-03-08T09:44:54.938Z,100.00
2023-03-08T09:45:58.946Z,100.00
2023-03-08T09:47:01.108Z,100.00
2023-03-08T09:48:05.417Z,100.00
2023-03-08T09:49:08.984Z,100.00
2023-03-08T09:50:12.745Z,100.00
2023-03-08T09:51:14.928Z,100.00
2023-03-08T09:52:17.353Z,100.00
2023-03-08T09:53:19.761Z,100.00
2023-03-08T09:54:23.670Z,100.00
2023-03-08T09:55:25.955Z,100.00
2023-03-08T09:56:28.276Z,100.00
2023-03-08T09:57:30.656Z,100.00
2023-03-08T09:58:32.972Z,100.00
2023-03-08T09:59:37.020Z,100.00
2023-03-08T10:00:41.845Z,100.00
2023-03-08T10:01:45.579Z,100.00
2023-03-08T10:11:14.884Z,100.00
2023-03-08T10:12:18.982Z,100.00
2023-03-08T10:13:21.195Z,100.00
2023-03-08T10:14:25.106Z,100.00
2023-03-08T10:15:28.971Z,100.00
2023-03-08T10:16:32.927Z,100.00
2023-03-08T10:17:37.624Z,100.00
2023-03-08T10:27:06.568Z,100.00
2023-03-08T10:28:08.948Z,100.00
2023-03-08T10:29:12.931Z,100.00
2023-03-08T10:30:16.783Z,100.00
2023-03-08T10:31:19.014Z,100.00
2023-03-08T10:32:23.014Z,100.00
2023-03-08T10:33:25.143Z,100.00
2023-03-08T10:34:27.573Z,100.00
2023-03-08T10:35:29.879Z,100.00
2023-03-08T10:36:32.231Z,100.00
2023-03-08T10:37:36.243Z,100.00
2023-03-08T10:38:40.089Z,100.00
2023-03-08T10:39:43.932Z,100.00
2023-03-08T10:40:48.732Z,100.00
2023-03-08T10:41:50.849Z,100.00
2023-03-08T10:42:53.244Z,100.00
2023-03-08T10:43:57.179Z,100.00
2023-03-08T10:44:59.410Z,100.00
2023-03-08T10:46:01.903Z,100.00
2023-03-08T10:47:05.773Z,100.00
2023-03-08T10:48:08.023Z,100.00
2023-03-08T10:49:10.371Z,100.00
2023-03-08T10:50:12.693Z,100.00
2023-03-08T10:51:15.047Z,100.00
2023-03-08T10:52:18.947Z,100.00
2023-03-08T11:01:49.253Z,100.00
2023-03-08T11:02:51.667Z,100.00
2023-03-08T11:03:55.671Z,100.00
2023-03-08T11:04:59.514Z,100.00
2023-03-08T11:06:01.676Z,100.00
2023-03-08T11:07:06.671Z,100.00
2023-03-08T11:08:07.784Z,100.00
2023-03-08T11:09:11.761Z,100.00
2023-03-08T11:10:13.960Z,100.00
2023-03-08T11:11:17.308Z,100.00
2023-03-08T11:12:21.197Z,100.00
2023-03-08T11:13:24.404Z,100.00
2023-03-08T11:14:27.705Z,100.00
2023-03-08T11:15:29.904Z,100.00
2023-03-08T11:16:32.368Z,100.00
2023-03-08T11:17:36.275Z,100.00
2023-03-08T11:18:38.593Z,100.00
2023-03-08T11:19:41.871Z,100.00
2023-03-08T11:20:44.125Z,100.00
2023-03-08T11:21:46.552Z,100.00
2023-03-08T11:22:48.879Z,100.00
2023-03-08T11:23:51.215Z,100.00
2023-03-08T11:24:53.626Z,100.00
2023-03-08T11:25:55.989Z,100.00
2023-03-08T11:27:00.035Z,100.00
2023-03-08T11:28:02.244Z,100.00
2023-03-08T11:29:06.200Z,100.00
2023-03-08T11:30:08.309Z,100.00
2023-03-08T11:31:10.737Z,100.00
2023-03-08T11:32:13.072Z,100.00
2023-03-08T11:33:15.595Z,100.00
2023-03-08T11:34:17.783Z,100.00
2023-03-08T11:35:21.826Z,100.00
2023-03-08T11:36:25.594Z,100.00
2023-03-08T11:37:27.860Z,100.00
2023-03-08T11:38:30.178Z,100.00
2023-03-08T11:39:32.472Z,100.00
2023-03-08T11:40:36.525Z,100.00
2023-03-08T11:41:38.711Z,100.00
2023-03-08T11:42:42.772Z,100.00
2023-03-08T11:43:44.925Z,100.00
2023-03-08T11:44:47.263Z,100.00
2023-03-08T11:45:49.628Z,100.00
2023-03-08T11:46:52.143Z,100.00
2023-03-08T11:47:54.423Z,100.00
2023-03-08T11:48:56.835Z,100.00
2023-03-08T11:49:59.226Z,100.00
2023-03-08T11:51:03.134Z,100.00
2023-03-08T11:52:06.921Z,100.00
2023-03-08T11:53:10.041Z,100.00
2023-03-08T11:54:12.282Z,100.00
2023-03-08T11:55:14.686Z,100.00
2023-03-08T11:56:18.682Z,100.00
2023-03-08T11:57:21.952Z,100.00
2023-03-08T11:58:24.217Z,100.00
2023-03-08T11:59:26.559Z,100.00
2023-03-08T12:00:28.934Z,100.00
2023-03-08T12:01:31.297Z,100.00
2023-03-08T12:02:33.691Z,100.00
2023-03-08T12:03:36.253Z,100.00
2023-03-08T12:04:38.502Z,100.00
2023-03-08T12:05:40.877Z,100.00
2023-03-08T12:06:43.288Z,100.00
2023-03-08T12:07:47.206Z,100.00
2023-03-08T12:08:49.466Z,100.00
2023-03-08T12:09:51.864Z,100.00
2023-03-08T12:10:54.224Z,100.00
2023-03-08T12:11:56.576Z,100.00
2023-03-08T12:13:00.525Z,100.00
2023-03-08T12:14:02.814Z,100.00
2023-03-08T12:15:06.875Z,100.00
2023-03-08T12:16:09.148Z,100.00
2023-03-08T12:17:13.147Z,100.00
2023-03-08T12:18:16.966Z,100.00
2023-03-08T12:19:19.202Z,100.00
2023-03-08T12:20:21.575Z,100.00
2023-03-08T12:21:25.577Z,100.00
2023-03-08T12:22:30.435Z,100.00
2023-03-08T12:23:32.676Z,100.00
2023-03-08T12:24:36.574Z,100.00
2023-03-08T12:25:39.820Z,100.00
2023-03-08T12:26:42.135Z,100.00
2023-03-08T12:27:47.131Z,100.00
2023-03-08T12:28:50.824Z,100.00
2023-03-08T12:29:53.080Z,100.00
2023-03-08T12:30:58.069Z,100.00
2023-03-08T12:32:00.420Z,100.00
2023-03-08T12:33:05.417Z,100.00
2023-03-08T12:34:07.314Z,100.00
2023-03-08T12:35:09.737Z,100.00
2023-03-08T12:36:12.137Z,100.00
2023-03-08T12:37:16.036Z,100.00
2023-03-08T12:38:19.342Z,100.00
2023-03-08T12:39:21.591Z,100.00
2023-03-08T12:40:25.545Z,100.00
2023-03-08T12:41:30.342Z,100.00
2023-03-08T12:42:32.486Z,100.00
2023-03-08T12:43:34.930Z,100.00
2023-03-08T12:44:38.854Z,100.00
2023-03-08T12:45:43.722Z,100.00
2023-03-08T12:46:56.256Z,100.00
2023-03-08T12:47:48.226Z,100.00
2023-03-08T12:48:50.669Z,100.00
2023-03-08T12:49:52.932Z,100.00
2023-03-08T12:50:55.360Z,100.00
2023-03-08T12:51:57.684Z,100.00
2023-03-08T12:52:59.976Z,100.00
2023-03-08T12:54:02.400Z,100.00
2023-03-08T12:55:04.726Z,100.00
2023-03-08T12:56:07.153Z,100.00
2023-03-08T12:57:09.473Z,100.00
2023-03-08T12:58:11.812Z,100.00
2023-03-08T12:59:15.299Z,100.00
2023-03-08T13:00:17.560Z,100.00
2023-03-08T13:01:20.098Z,100.00
2023-03-08T13:02:23.926Z,100.00
2023-03-08T13:03:26.180Z,100.00
2023-03-08T13:04:39.535Z,100.00
2023-03-08T13:05:30.975Z,100.00
2023-03-08T13:06:33.297Z,100.00
2023-03-08T13:07:37.358Z,100.00
2023-03-08T13:08:39.619Z,100.00
2023-03-08T13:09:42.012Z,100.00
2023-03-08T13:10:45.303Z,100.00
2023-03-08T13:11:48.636Z,100.00
2023-03-08T13:12:50.952Z,100.00
2023-03-08T13:13:53.309Z,100.00
2023-03-08T13:14:55.649Z,100.00
2023-03-08T13:15:58.083Z,100.00
2023-03-08T13:17:00.599Z,100.00
2023-03-08T13:18:04.440Z,100.00
2023-03-08T13:19:09.402Z,100.00
2023-03-08T13:20:11.628Z,100.00
2023-03-08T13:21:13.856Z,100.00
2023-03-08T13:22:16.278Z,100.00
2023-03-08T13:23:20.229Z,100.00
2023-03-08T13:24:22.466Z,100.00
2023-03-08T13:25:26.465Z,100.00
2023-03-08T13:26:31.309Z,100.00
2023-03-08T13:27:31.035Z,100.00
2023-03-08T13:28:46.059Z,100.00
2023-03-08T13:29:36.702Z,100.00
2023-03-08T13:30:40.892Z,100.00
2023-03-08T13:31:43.922Z,100.00
2023-03-08T13:32:47.866Z,100.00
2023-03-08T13:33:50.134Z,100.00
2023-03-08T13:34:52.357Z,100.00
2023-03-08T13:35:55.742Z,100.00
2023-03-08T13:36:59.606Z,100.00
2023-03-08T13:38:01.890Z,100.00
2023-03-08T13:39:04.303Z,100.00
2023-03-08T13:40:06.543Z,100.00
2023-03-08T13:41:09.058Z,100.00
2023-03-08T13:42:12.946Z,100.00
2023-03-08T13:43:15.091Z,100.00
2023-03-08T13:44:17.750Z,100.00
2023-03-08T13:45:20.085Z,100.00
2023-03-08T13:46:22.561Z,100.00
2023-03-08T13:47:26.435Z,100.00
2023-03-08T13:48:28.718Z,100.00
2023-03-08T13:49:31.080Z,100.00
2023-03-08T13:59:01.880Z,100.00
2023-03-08T14:00:04.243Z,100.00
2023-03-08T14:01:06.704Z,100.00
2023-03-08T14:02:10.144Z,100.00
2023-03-08T14:03:12.291Z,100.00
2023-03-08T14:04:17.411Z,100.00
2023-03-08T14:05:19.450Z,100.00
2023-03-08T14:06:21.921Z,100.00
2023-03-08T14:07:24.283Z,100.00
2023-03-08T14:08:26.682Z,100.00
2023-03-08T14:09:29.017Z,100.00
2023-03-08T14:10:31.385Z,100.00
2023-03-08T14:11:35.388Z,100.00
2023-03-08T14:12:40.305Z,100.00
2023-03-08T14:13:44.034Z,100.00
2023-03-08T14:14:47.957Z,100.00
2023-03-08T14:15:51.720Z,100.00
2023-03-08T14:16:53.905Z,100.00
2023-03-08T14:17:58.009Z,100.00
2023-03-08T14:19:01.892Z,100.00
2023-03-08T14:20:04.083Z,100.00
2023-03-08T14:21:06.386Z,100.00
2023-03-08T14:22:08.802Z,100.00
2023-03-08T14:23:11.114Z,100.00
2023-03-08T14:24:15.134Z,100.00
2023-03-08T14:25:17.470Z,100.00
2023-03-08T14:26:19.828Z,100.00
2023-03-08T14:27:23.770Z,100.00
2023-03-08T14:28:26.061Z,100.00
2023-03-08T14:29:28.508Z,100.00
2023-03-08T14:30:33.356Z,100.00
2023-03-08T14:31:35.643Z,100.00
2023-03-08T14:32:38.096Z,100.00
2023-03-08T14:33:42.674Z,100.00
2023-03-08T14:34:44.422Z,100.00
2023-03-08T14:35:46.855Z,100.00
2023-03-08T14:36:49.184Z,100.00
2023-03-08T14:37:51.559Z,100.00
2023-03-08T14:38:55.538Z,100.00
2023-03-08T14:39:57.827Z,100.00
2023-03-08T14:41:00.182Z,100.00
2023-03-08T14:42:08.262Z,100.00
2023-03-08T14:43:10.161Z,100.00
2023-03-08T14:44:12.558Z,100.00
2023-03-08T14:45:16.581Z,100.00
2023-03-08T14:46:18.918Z,100.00
2023-03-08T14:47:22.830Z,100.00
2023-03-08T14:48:26.711Z,100.00
2023-03-08T14:49:28.991Z,100.00
2023-03-08T14:50:31.355Z,100.00
2023-03-08T14:51:33.751Z,100.00
2023-03-08T14:52:36.128Z,100.00
2023-03-08T14:53:38.518Z,100.00
2023-03-08T14:54:42.478Z,100.00
2023-03-08T14:55:46.447Z,100.00
2023-03-08T14:56:50.210Z,100.00
2023-03-08T14:57:52.529Z,100.00
2023-03-08T14:58:54.949Z,100.00
2023-03-08T14:59:57.351Z,100.00
2023-03-08T15:00:59.720Z,100.00
2023-03-08T15:02:02.228Z,100.00
2023-03-08T15:03:04.560Z,100.00
2023-03-08T15:04:07.123Z,100.00
2023-03-08T15:05:09.510Z,100.00
2023-03-08T15:06:11.878Z,100.00
2023-03-08T15:07:15.971Z,100.00
2023-03-08T15:08:19.798Z,100.00
2023-03-08T15:09:24.662Z,100.00
2023-03-08T15:10:28.508Z,100.00
2023-03-08T15:11:32.418Z,100.00
2023-03-08T15:12:35.630Z,100.00
2023-03-08T15:13:39.506Z,100.00
2023-03-08T15:14:43.387Z,100.00
2023-03-08T15:15:45.697Z,100.00
2023-03-08T15:16:47.943Z,100.00
2023-03-08T15:17:50.380Z,100.00
2023-03-08T15:18:54.370Z,100.00
2023-03-08T15:19:56.663Z,100.00
2023-03-08T15:20:59.183Z,100.00
2023-03-08T15:22:01.548Z,100.00
2023-03-08T15:23:06.545Z,100.00
2023-03-08T15:24:08.636Z,100.00
2023-03-08T15:25:11.077Z,100.00
2023-03-08T15:26:14.402Z,100.00
2023-03-08T15:27:17.729Z,100.00
2023-03-08T15:28:21.663Z,100.00
2023-03-08T15:29:25.559Z,100.00
2023-03-08T15:30:29.426Z,100.00
2023-03-08T15:31:31.699Z,100.00
2023-03-08T15:32:34.114Z,100.00
2023-03-08T15:33:36.623Z,100.00
2023-03-08T15:34:38.972Z,100.00
2023-03-08T15:35:43.061Z,100.00
2023-03-08T15:36:46.897Z,100.00
2023-03-08T15:37:50.751Z,100.00
2023-03-08T15:38:54.656Z,100.00
2023-03-08T15:39:56.882Z,100.00
2023-03-08T15:40:59.337Z,100.00
2023-03-08T15:42:01.718Z,100.00
2023-03-08T15:43:05.141Z,100.00
2023-03-08T15:44:07.437Z,100.00
2023-03-08T15:45:09.871Z,100.00
2023-03-08T15:46:12.289Z,100.00
2023-03-08T15:47:14.631Z,100.00
2023-03-08T15:48:17.035Z,100.00
2023-03-08T15:49:20.526Z,100.00
2023-03-08T15:50:24.370Z,100.00
2023-03-08T15:51:26.544Z,100.00
2023-03-08T15:52:31.157Z,100.00
2023-03-08T15:53:35.538Z,100.00
2023-03-08T15:54:35.216Z,100.00
2023-03-08T15:55:39.297Z,100.00
2023-03-08T15:56:41.529Z,100.00
2023-03-08T15:57:45.516Z,100.00
2023-03-08T15:58:47.798Z,100.00
2023-03-08T15:59:51.766Z,100.00
2023-03-08T16:00:55.086Z,100.00
2023-03-08T16:01:59.924Z,100.00
2023-03-08T16:03:02.182Z,100.00
2023-03-08T16:04:04.556Z,100.00
2023-03-08T16:05:07.031Z,100.00
2023-03-08T16:06:09.399Z,100.00
2023-03-08T16:07:11.857Z,100.00
2023-03-08T16:08:14.237Z,100.00
2023-03-08T16:09:16.560Z,100.00
2023-03-08T16:10:20.573Z,100.00
2023-03-08T16:11:22.975Z,100.00
2023-03-08T16:12:25.327Z,100.00
2023-03-08T16:13:27.638Z,100.00
2023-03-08T16:14:30.111Z,100.00
2023-03-08T16:15:32.502Z,100.00
2023-03-08T16:16:45.085Z,100.00
2023-03-08T16:17:40.401Z,100.00
2023-03-08T16:18:44.250Z,100.00
2023-03-08T16:19:48.123Z,100.00
2023-03-08T16:20:50.385Z,100.00
2023-03-08T16:21:52.820Z,100.00
2023-03-08T16:22:55.168Z,100.00
2023-03-08T16:23:57.616Z,100.00
2023-03-08T16:25:01.600Z,100.00
2023-03-08T16:26:14.549Z,100.00
2023-03-08T16:27:07.889Z,100.00
2023-03-08T16:28:11.781Z,100.00
2023-03-08T16:29:14.058Z,100.00
2023-03-08T16:30:16.381Z,100.00
2023-03-08T16:31:18.876Z,100.00
2023-03-08T16:32:22.830Z,100.00
2023-03-08T16:33:25.063Z,100.00
2023-03-08T16:34:27.448Z,100.00
2023-03-08T16:35:31.492Z,100.00
2023-03-08T16:36:33.778Z,100.00
2023-03-08T16:37:36.148Z,100.00
2023-03-08T16:38:38.535Z,100.00
2023-03-08T16:39:42.482Z,100.00
2023-03-08T16:40:44.726Z,100.00
2023-03-08T16:41:47.133Z,100.00
2023-03-08T16:42:49.504Z,100.00
2023-03-08T16:43:53.491Z,100.00
2023-03-08T16:44:55.738Z,100.00
2023-03-08T16:45:58.152Z,100.00
2023-03-08T16:55:30.079Z,100.00
2023-03-08T17:05:03.542Z,100.00
2023-03-08T17:14:37.982Z,100.00
2023-03-08T17:24:11.240Z,100.00
2023-03-08T17:33:46.783Z,100.00
2023-03-08T17:43:18.884Z,100.00
2023-03-08T17:52:52.355Z,100.00
2023-03-08T18:02:25.721Z,100.00
2023-03-08T18:11:58.296Z,100.00
2023-03-08T18:21:33.783Z,100.00
2023-03-08T18:31:07.422Z,100.00
2023-03-08T18:40:40.790Z,100.00
2023-03-08T18:50:14.319Z,100.00
2023-03-08T18:59:47.338Z,100.00
2023-03-08T19:09:22.187Z,100.00
2023-03-08T19:18:56.556Z,100.00
2023-03-08T19:28:30.431Z,100.00
2023-03-08T19:38:03.613Z,100.00
2023-03-08T19:47:38.811Z,100.00
2023-03-08T19:57:11.681Z,100.00
2023-03-08T20:06:46.400Z,100.00
2023-03-08T20:16:18.805Z,100.00
2023-03-08T20:25:52.785Z,100.00
2023-03-08T20:35:26.611Z,100.00
2023-03-08T20:45:00.780Z,100.00
2023-03-08T20:54:34.655Z,100.00
2023-03-08T21:04:08.252Z,100.00
2023-03-08T21:13:41.277Z,100.00
2023-03-08T21:23:16.570Z,100.00
2023-03-08T21:32:48.352Z,100.00
2023-03-08T21:42:23.397Z,100.00
2023-03-08T21:51:55.596Z,100.00
2023-03-08T22:01:30.117Z,100.00
2023-03-08T22:11:04.178Z,100.00
2023-03-08T22:20:37.964Z,100.00
2023-03-08T22:30:13.548Z,100.00
2023-03-08T22:39:47.284Z,100.00
2023-03-08T22:49:19.250Z,100.00
2023-03-08T22:58:52.357Z,100.00
2023-03-08T23:08:26.295Z,100.00
2023-03-08T23:18:01.748Z,100.00
2023-03-08T23:27:34.025Z,100.00
2023-03-08T23:37:09.560Z,100.00
2023-03-08T23:38:13.386Z,100.00
2023-03-08T23:47:45.248Z,100.00
2023-03-08T23:57:21.100Z,100.00
